createdAt,value
2022-07-29T00:02:16.661Z,23.83
2022-07-29T00:05:22.282Z,23.88
2022-07-29T00:08:25.040Z,23.83
2022-07-29T00:11:31.822Z,23.81
2022-07-29T00:14:34.952Z,23.73
2022-07-29T00:17:38.194Z,23.66
2022-07-29T00:20:45.076Z,23.68
2022-07-29T00:23:48.111Z,23.65
2022-07-29T00:26:51.067Z,23.67
2022-07-29T00:29:54.215Z,23.65
2022-07-29T00:32:58.301Z,23.60
2022-07-29T00:36:01.401Z,23.66
2022-07-29T00:39:04.866Z,23.64
2022-07-29T00:42:08.842Z,23.61
2022-07-29T00:45:12.147Z,23.55
2022-07-29T00:48:15.317Z,23.49
2022-07-29T00:51:18.338Z,23.39
2022-07-29T00:54:24.729Z,23.41
2022-07-29T00:57:27.571Z,23.33
2022-07-29T01:00:31.178Z,23.33
2022-07-29T01:03:34.089Z,23.38
2022-07-29T01:06:37.276Z,23.35
2022-07-29T01:09:46.785Z,23.43
2022-07-29T01:12:51.839Z,23.35
2022-07-29T01:15:58.620Z,23.31
2022-07-29T01:19:11.602Z,23.30
2022-07-29T01:22:43.731Z,23.38
2022-07-29T01:25:53.282Z,23.36
2022-07-29T01:29:09.713Z,23.37
2022-07-29T01:32:28.813Z,23.38
2022-07-29T01:35:40.056Z,23.30
2022-07-29T01:38:45.379Z,23.36
2022-07-29T01:42:01.513Z,23.27
2022-07-29T01:45:29.821Z,23.25
2022-07-29T01:48:56.955Z,23.20
2022-07-29T01:52:14.910Z,23.14
2022-07-29T02:02:48.665Z,23.11
2022-07-29T02:05:52.638Z,22.96
2022-07-29T02:08:57.038Z,22.81
2022-07-29T02:12:02.425Z,22.87
2022-07-29T02:15:07.606Z,22.82
2022-07-29T02:18:18.985Z,22.76
2022-07-29T02:21:25.774Z,22.68
2022-07-29T02:24:29.950Z,22.66
2022-07-29T02:27:35.113Z,22.53
2022-07-29T02:30:41.340Z,22.59
2022-07-29T02:33:44.384Z,22.64
2022-07-29T02:36:48.872Z,22.49
2022-07-29T02:39:54.624Z,22.34
2022-07-29T02:42:57.681Z,22.29
2022-07-29T02:46:02.090Z,22.36
2022-07-29T02:49:13.058Z,22.29
2022-07-29T02:52:21.542Z,22.33
2022-07-29T02:55:28.871Z,22.26
2022-07-29T02:58:48.447Z,22.18
2022-07-29T03:01:53.147Z,22.18
2022-07-29T03:04:56.831Z,22.22
2022-07-29T03:12:00.883Z,22.12
2022-07-29T03:23:54.719Z,22.08
2022-07-29T03:26:58.094Z,22.10
2022-07-29T03:30:00.838Z,22.06
2022-07-29T03:33:04.045Z,22.09
2022-07-29T03:36:16.375Z,22.09
2022-07-29T03:39:22.976Z,22.02
2022-07-29T03:42:31.094Z,22.02
2022-07-29T03:50:10.675Z,22.04
2022-07-29T03:53:14.286Z,22.08
2022-07-29T03:56:18.361Z,22.22
2022-07-29T03:59:22.689Z,22.23
2022-07-29T04:02:30.519Z,22.25
2022-07-29T04:05:34.408Z,22.28
2022-07-29T04:08:37.266Z,22.30
2022-07-29T04:12:02.037Z,22.36
2022-07-29T04:15:07.703Z,22.36
2022-07-29T04:18:10.928Z,22.25
2022-07-29T04:21:13.815Z,22.45
2022-07-29T04:24:17.850Z,22.40
2022-07-29T04:27:21.107Z,22.29
2022-07-29T04:30:24.342Z,22.48
2022-07-29T04:33:27.255Z,22.49
2022-07-29T04:36:30.327Z,22.45
2022-07-29T04:39:33.139Z,22.63
2022-07-29T04:42:36.254Z,22.75
2022-07-29T04:45:49.499Z,22.83
2022-07-29T04:48:52.639Z,22.91
2022-07-29T04:51:55.502Z,23.05
2022-07-29T04:54:59.347Z,23.13
2022-07-29T04:58:02.249Z,23.14
2022-07-29T05:01:06.157Z,23.31
2022-07-29T05:04:12.177Z,23.30
2022-07-29T05:07:16.647Z,23.46
2022-07-29T05:10:19.590Z,23.56
2022-07-29T05:13:23.778Z,23.54
2022-07-29T05:16:26.939Z,23.59
2022-07-29T05:19:33.824Z,23.67
2022-07-29T05:22:49.921Z,23.77
2022-07-29T05:25:55.168Z,23.90
2022-07-29T05:29:43.794Z,23.99
2022-07-29T05:32:59.370Z,24.05
2022-07-29T05:36:18.609Z,24.19
2022-07-29T05:39:47.621Z,24.34
2022-07-29T05:43:38.930Z,24.41
2022-07-29T05:46:42.059Z,24.36
2022-07-29T05:49:44.977Z,24.54
2022-07-29T05:52:56.728Z,24.70
2022-07-29T06:00:35.544Z,24.90
2022-07-29T06:03:41.746Z,25.05
2022-07-29T06:06:44.691Z,25.23
2022-07-29T06:09:47.957Z,25.24
2022-07-29T06:13:21.463Z,25.39
2022-07-29T06:20:26.958Z,25.70
2022-07-29T06:23:43.921Z,26.05
2022-07-29T06:26:47.827Z,26.13
2022-07-29T06:29:50.965Z,26.33
2022-07-29T06:32:54.056Z,26.47
2022-07-29T06:35:58.792Z,26.46
2022-07-29T06:39:02.832Z,26.64
2022-07-29T06:42:09.570Z,26.50
2022-07-29T06:45:13.065Z,26.72
2022-07-29T06:48:17.776Z,26.77
2022-07-29T06:55:24.697Z,26.97
2022-07-29T06:58:31.040Z,26.82
2022-07-29T07:01:35.284Z,27.10
2022-07-29T07:04:38.627Z,27.13
2022-07-29T07:07:41.928Z,27.28
2022-07-29T07:10:45.229Z,27.51
2022-07-29T07:13:48.073Z,27.36
2022-07-29T07:16:52.713Z,27.56
2022-07-29T07:19:59.119Z,27.61
2022-07-29T07:23:02.444Z,27.64
2022-07-29T07:26:07.001Z,27.44
2022-07-29T07:29:10.194Z,27.96
2022-07-29T07:32:14.598Z,27.92
2022-07-29T07:36:02.001Z,28.24
2022-07-29T07:39:54.959Z,27.67
2022-07-29T07:45:12.438Z,28.27
2022-07-29T07:53:56.559Z,27.62
2022-07-29T07:57:18.367Z,27.83
2022-07-29T08:00:24.999Z,27.73
2022-07-29T08:03:42.254Z,27.98
2022-07-29T08:15:21.090Z,28.43
2022-07-29T08:18:31.177Z,28.66
2022-07-29T08:21:43.797Z,29.09
2022-07-29T08:25:07.226Z,28.64
2022-07-29T08:40:01.489Z,29.22
2022-07-29T08:47:43.768Z,29.36
2022-07-29T08:50:54.239Z,29.30
2022-07-29T08:54:32.552Z,29.43
2022-07-29T08:57:51.987Z,29.65
2022-07-29T09:01:47.389Z,29.62
2022-07-29T09:10:21.512Z,29.78
2022-07-29T09:13:37.104Z,29.40
2022-07-29T09:16:53.101Z,29.77
2022-07-29T09:20:10.465Z,29.43
2022-07-29T09:23:23.971Z,29.52
2022-07-29T09:26:32.985Z,29.62
2022-07-29T09:29:36.424Z,29.83
2022-07-29T09:33:02.525Z,29.40
2022-07-29T09:37:17.922Z,29.35
2022-07-29T09:44:12.788Z,29.59
2022-07-29T09:47:18.252Z,29.65
2022-07-29T09:50:25.111Z,29.51
2022-07-29T09:53:39.162Z,29.77
2022-07-29T09:56:43.567Z,29.93
2022-07-29T10:00:08.174Z,29.91
2022-07-29T10:03:16.778Z,30.09
2022-07-29T10:06:21.198Z,29.99
2022-07-29T10:09:25.403Z,30.48
2022-07-29T10:12:32.700Z,30.56
2022-07-29T10:15:42.070Z,30.78
2022-07-29T10:18:45.955Z,30.85
2022-07-29T10:21:49.857Z,31.20
2022-07-29T10:24:53.173Z,31.30
2022-07-29T10:27:56.389Z,31.25
2022-07-29T10:31:03.530Z,30.99
2022-07-29T10:34:22.513Z,30.60
2022-07-29T10:37:56.903Z,30.71
2022-07-29T10:41:27.764Z,30.55
2022-07-29T10:44:35.643Z,30.83
2022-07-29T10:47:40.042Z,31.18
2022-07-29T10:51:00.054Z,31.33
2022-07-29T10:54:06.756Z,32.27
2022-07-29T10:57:53.057Z,31.50
2022-07-29T11:00:51.827Z,30.63
2022-07-29T11:03:57.268Z,31.24
2022-07-29T11:07:00.033Z,31.51
2022-07-29T11:10:13.049Z,31.09
2022-07-29T11:13:54.050Z,31.28
2022-07-29T11:17:07.029Z,31.34
2022-07-29T11:20:49.695Z,31.69
2022-07-29T11:24:28.826Z,32.09
2022-07-29T11:27:40.905Z,31.75
2022-07-29T11:31:05.585Z,32.04
2022-07-29T11:34:21.168Z,32.51
2022-07-29T11:37:27.971Z,32.74
2022-07-29T11:40:31.911Z,33.08
2022-07-29T11:43:58.587Z,33.43
2022-07-29T11:47:02.483Z,33.22
2022-07-29T12:08:58.402Z,33.32
2022-07-29T12:12:05.357Z,33.68
2022-07-29T12:27:29.278Z,33.45
2022-07-29T12:30:41.610Z,32.87
2022-07-29T12:34:28.226Z,34.17
2022-07-29T12:37:42.559Z,32.94
2022-07-29T12:40:49.428Z,33.81
2022-07-29T12:43:56.391Z,33.68
2022-07-29T12:47:07.201Z,33.45
2022-07-29T12:50:11.116Z,34.67
2022-07-29T12:53:15.097Z,35.00
2022-07-29T12:56:42.302Z,36.35
2022-07-29T13:00:40.995Z,35.00
2022-07-29T13:04:10.739Z,35.16
2022-07-29T13:28:57.758Z,33.54
2022-07-29T13:36:37.654Z,36.59
2022-07-29T13:40:00.796Z,36.16
2022-07-29T13:43:07.590Z,37.18
2022-07-29T13:46:12.980Z,38.28
2022-07-29T13:52:46.138Z,38.69
2022-07-29T13:55:49.071Z,39.31
2022-07-29T13:58:52.073Z,39.67
2022-07-29T14:01:56.010Z,37.36
2022-07-29T14:04:59.692Z,37.50
2022-07-29T14:08:04.375Z,36.75
2022-07-29T14:11:08.489Z,35.84
2022-07-29T14:14:11.754Z,35.14
2022-07-29T14:17:16.349Z,35.20
2022-07-29T14:20:23.658Z,35.33
2022-07-29T14:23:27.649Z,35.16
2022-07-29T14:26:31.079Z,36.28
2022-07-29T14:29:38.042Z,35.61
2022-07-29T14:32:42.199Z,35.79
2022-07-29T14:35:46.104Z,35.70
2022-07-29T14:38:48.977Z,36.14
2022-07-29T14:41:52.638Z,37.58
2022-07-29T14:44:55.570Z,39.69
2022-07-29T14:52:56.241Z,38.25
2022-07-29T14:56:35.330Z,37.34
2022-07-29T14:59:34.249Z,36.93
2022-07-29T15:02:59.704Z,36.65
2022-07-29T15:06:01.002Z,38.28
2022-07-29T15:09:04.436Z,39.20
2022-07-29T15:12:09.120Z,38.54
2022-07-29T15:15:13.481Z,38.26
2022-07-29T15:18:16.638Z,37.09
2022-07-29T15:21:29.022Z,37.24
2022-07-29T15:25:05.649Z,36.25
2022-07-29T15:32:18.371Z,35.01
2022-07-29T16:20:28.510Z,37.18
2022-07-29T16:23:32.431Z,33.92
2022-07-29T16:26:35.784Z,34.77
2022-07-29T16:29:39.778Z,34.64
2022-07-29T16:32:43.194Z,34.37
2022-07-29T16:35:46.350Z,34.05
2022-07-29T16:38:49.919Z,33.82
2022-07-29T16:41:56.976Z,33.66
2022-07-29T16:45:04.616Z,33.44
2022-07-29T16:48:23.239Z,33.23
2022-07-29T16:55:32.300Z,32.97
2022-07-29T16:58:35.342Z,31.32
2022-07-29T17:01:39.000Z,30.54
2022-07-29T17:09:06.333Z,30.19
2022-07-29T17:12:27.646Z,30.18
2022-07-29T17:15:30.451Z,29.89
2022-07-29T17:18:39.674Z,29.63
2022-07-29T17:21:47.337Z,29.13
2022-07-29T17:25:05.185Z,29.22
2022-07-29T17:28:08.071Z,29.20
2022-07-29T17:31:14.984Z,29.17
2022-07-29T17:34:17.923Z,28.92
2022-07-29T17:37:23.579Z,28.97
2022-07-29T17:40:26.423Z,28.96
2022-07-29T17:43:29.585Z,28.93
2022-07-29T17:46:32.525Z,28.94
2022-07-29T17:49:36.731Z,28.89
2022-07-29T17:52:41.372Z,28.84
2022-07-29T17:55:46.270Z,28.86
2022-07-29T17:58:49.321Z,28.87
2022-07-29T18:01:53.348Z,28.79
2022-07-29T18:05:12.946Z,28.64
2022-07-29T18:08:17.158Z,28.54
2022-07-29T18:11:25.547Z,28.34
2022-07-29T18:14:43.620Z,28.35
2022-07-29T18:18:00.241Z,28.26
2022-07-29T18:21:04.134Z,28.13
2022-07-29T18:24:07.400Z,28.04
2022-07-29T18:27:10.868Z,28.12
2022-07-29T18:30:17.943Z,28.00
2022-07-29T18:33:22.336Z,27.76
2022-07-29T18:36:25.855Z,27.64
2022-07-29T18:39:28.727Z,27.60
2022-07-29T18:42:32.126Z,27.46
2022-07-29T18:45:35.964Z,27.38
2022-07-29T18:48:42.952Z,27.27
2022-07-29T18:51:47.169Z,27.14
2022-07-29T18:54:50.270Z,27.07
2022-07-29T18:57:59.029Z,26.96
2022-07-29T19:01:02.417Z,26.82
2022-07-29T19:04:05.483Z,26.80
2022-07-29T19:07:09.076Z,26.60
2022-07-29T19:10:12.431Z,26.63
2022-07-29T19:13:15.533Z,26.49
2022-07-29T19:16:18.668Z,26.49
2022-07-29T19:19:21.826Z,26.33
2022-07-29T19:30:54.301Z,25.99
2022-07-29T19:33:58.648Z,25.37
2022-07-29T19:37:07.680Z,24.99
2022-07-29T19:40:12.747Z,24.48
2022-07-29T19:43:50.354Z,24.95
2022-07-29T19:46:50.994Z,25.05
2022-07-29T19:49:53.817Z,24.97
2022-07-29T19:52:57.227Z,24.93
2022-07-29T19:56:00.207Z,24.86
2022-07-29T19:59:13.191Z,24.84
2022-07-29T20:06:31.185Z,24.75
2022-07-29T20:09:34.961Z,24.85
2022-07-29T20:12:38.800Z,24.87
2022-07-29T20:23:44.603Z,24.99
2022-07-29T20:27:04.124Z,25.08
2022-07-29T20:30:23.826Z,25.15
2022-07-29T20:33:27.118Z,25.20
2022-07-29T20:37:04.155Z,25.14
2022-07-29T20:40:12.562Z,25.16
2022-07-29T20:43:30.081Z,25.07
2022-07-29T20:46:54.196Z,25.09
2022-07-29T20:49:57.206Z,25.01
2022-07-29T20:52:59.982Z,25.10
2022-07-29T20:56:07.044Z,25.01
2022-07-29T20:59:11.817Z,24.94
2022-07-29T21:02:15.117Z,24.86
2022-07-29T21:05:18.073Z,24.75
2022-07-29T21:08:32.781Z,24.62
2022-07-29T21:11:43.459Z,24.52
2022-07-29T21:14:48.747Z,24.48
2022-07-29T21:17:59.636Z,24.36
2022-07-29T21:21:04.673Z,24.33
2022-07-29T21:24:08.609Z,24.28
2022-07-29T21:27:34.003Z,24.22
2022-07-29T21:30:40.414Z,24.22
2022-07-29T21:33:45.649Z,24.10
2022-07-29T21:36:58.514Z,24.13
2022-07-29T21:40:01.840Z,24.05
2022-07-29T21:43:17.607Z,24.03
2022-07-29T21:46:24.516Z,23.98
2022-07-29T21:49:28.155Z,23.90
2022-07-29T21:52:34.064Z,23.83
2022-07-29T21:55:40.696Z,23.74
2022-07-29T21:58:47.031Z,23.67
2022-07-29T22:01:49.981Z,23.65
2022-07-29T22:05:01.783Z,23.70
2022-07-29T22:08:05.045Z,23.69
2022-07-29T22:11:08.502Z,23.68
2022-07-29T22:14:12.405Z,23.63
2022-07-29T22:17:21.267Z,23.59
2022-07-29T22:20:27.959Z,23.56
2022-07-29T22:23:34.312Z,23.41
2022-07-29T22:26:37.485Z,23.30
2022-07-29T22:29:40.634Z,23.30
2022-07-29T22:32:45.805Z,23.29
2022-07-29T22:35:49.270Z,23.27
2022-07-29T22:38:54.671Z,23.16
2022-07-29T22:41:58.073Z,23.11
2022-07-29T22:45:00.897Z,23.13
2022-07-29T22:48:04.309Z,23.05
2022-07-29T22:51:10.252Z,23.11
2022-07-29T22:54:13.489Z,23.01
2022-07-29T22:57:18.089Z,22.97
2022-07-29T23:00:21.652Z,22.89
2022-07-29T23:03:27.954Z,22.88
2022-07-29T23:06:31.172Z,22.85
2022-07-29T23:09:36.541Z,22.83
2022-07-29T23:12:42.660Z,22.80
2022-07-29T23:15:48.767Z,22.83
2022-07-29T23:18:53.240Z,22.71
2022-07-29T23:21:57.023Z,22.71
2022-07-29T23:25:03.033Z,22.71
2022-07-29T23:28:18.886Z,22.71
2022-07-29T23:31:22.520Z,22.73
2022-07-29T23:34:25.379Z,22.70
2022-07-29T23:37:28.802Z,22.65
2022-07-29T23:40:47.774Z,22.60
2022-07-29T23:43:50.977Z,22.63
2022-07-29T23:47:00.786Z,22.60
2022-07-29T23:50:11.198Z,22.56
2022-07-29T23:53:14.193Z,22.52
2022-07-29T23:56:17.377Z,22.42
2022-07-29T23:59:24.870Z,22.40
